sensor_id;sensor_type;location;lat;lon;timestamp;pressure;altitude;pressure_sealevel;temperature;humidity
32251;BME280;41295;48.518;9.206;2023-04-25T00:00:22;96594.75;;;10.21;63.13
32251;BME280;41295;48.518;9.206;2023-04-25T00:02:26;96587.78;;;10.21;63.29
32251;BME280;41295;48.518;9.206;2023-04-25T00:04:29;96583.47;;;10.20;62.94
32251;BME280;41295;48.518;9.206;2023-04-25T00:06:34;96593.88;;;10.20;62.86
32251;BME280;41295;48.518;9.206;2023-04-25T00:08:38;96597.06;;;10.27;62.83
32251;BME280;41295;48.518;9.206;2023-04-25T00:10:42;96611.44;;;10.36;62.61
32251;BME280;41295;48.518;9.206;2023-04-25T00:12:45;96604.47;;;10.17;63.53
32251;BME280;41295;48.518;9.206;2023-04-25T00:14:48;96610.88;;;10.10;63.62
32251;BME280;41295;48.518;9.206;2023-04-25T00:16:50;96609.91;;;10.13;63.28
32251;BME280;41295;48.518;9.206;2023-04-25T00:18:55;96611.28;;;10.01;63.72
32251;BME280;41295;48.518;9.206;2023-04-25T00:20:58;96609.53;;;10.01;63.40
32251;BME280;41295;48.518;9.206;2023-04-25T00:23:00;96606.22;;;9.97;63.47
32251;BME280;41295;48.518;9.206;2023-04-25T00:25:03;96604.56;;;9.96;63.24
32251;BME280;41295;48.518;9.206;2023-04-25T00:27:09;96595.88;;;9.96;63.05
32251;BME280;41295;48.518;9.206;2023-04-25T00:29:11;96604.31;;;10.01;62.76
32251;BME280;41295;48.518;9.206;2023-04-25T00:31:14;96595.81;;;9.97;63.17
32251;BME280;41295;48.518;9.206;2023-04-25T00:33:16;96593.50;;;10.10;63.00
32251;BME280;41295;48.518;9.206;2023-04-25T00:35:19;96598.78;;;10.09;63.44
32251;BME280;41295;48.518;9.206;2023-04-25T00:37:22;96598.97;;;10.04;63.67
32251;BME280;41295;48.518;9.206;2023-04-25T00:39:25;96594.69;;;10.03;63.15
32251;BME280;41295;48.518;9.206;2023-04-25T00:41:27;96596.25;;;10.07;61.43
32251;BME280;41295;48.518;9.206;2023-04-25T00:43:33;96597.91;;;10.08;61.29
32251;BME280;41295;48.518;9.206;2023-04-25T00:45:38;96592.88;;;10.05;61.63
32251;BME280;41295;48.518;9.206;2023-04-25T00:47:41;96594.13;;;10.16;60.94
32251;BME280;41295;48.518;9.206;2023-04-25T00:49:43;96588.44;;;10.07;61.27
32251;BME280;41295;48.518;9.206;2023-04-25T00:51:46;96591.78;;;10.09;61.29
32251;BME280;41295;48.518;9.206;2023-04-25T00:53:49;96584.03;;;10.08;61.32
32251;BME280;41295;48.518;9.206;2023-04-25T00:55:53;96579.63;;;10.10;61.58
32251;BME280;41295;48.518;9.206;2023-04-25T00:57:55;96583.00;;;10.12;61.55
32251;BME280;41295;48.518;9.206;2023-04-25T00:59:59;96577.78;;;10.12;61.50
32251;BME280;41295;48.518;9.206;2023-04-25T01:02:03;96572.56;;;10.12;61.28
32251;BME280;41295;48.518;9.206;2023-04-25T01:04:06;96574.31;;;10.11;61.19
32251;BME280;41295;48.518;9.206;2023-04-25T01:06:10;96571.63;;;10.32;60.41
32251;BME280;41295;48.518;9.206;2023-04-25T01:08:13;96568.63;;;10.22;60.92
32251;BME280;41295;48.518;9.206;2023-04-25T01:10:16;96565.47;;;10.16;61.09
32251;BME280;41295;48.518;9.206;2023-04-25T01:12:18;96569.03;;;10.13;61.14
32251;BME280;41295;48.518;9.206;2023-04-25T01:14:21;96570.03;;;10.10;61.27
32251;BME280;41295;48.518;9.206;2023-04-25T01:16:25;96568.22;;;10.13;61.33
32251;BME280;41295;48.518;9.206;2023-04-25T01:18:28;96565.63;;;10.13;61.51
32251;BME280;41295;48.518;9.206;2023-04-25T01:20:32;96569.03;;;10.13;62.18
32251;BME280;41295;48.518;9.206;2023-04-25T01:22:36;96562.06;;;10.14;62.55
32251;BME280;41295;48.518;9.206;2023-04-25T01:24:39;96554.25;;;10.14;62.74
32251;BME280;41295;48.518;9.206;2023-04-25T01:26:43;96548.97;;;10.15;63.39
32251;BME280;41295;48.518;9.206;2023-04-25T01:28:51;96547.06;;;10.19;63.04
32251;BME280;41295;48.518;9.206;2023-04-25T01:30:54;96556.50;;;10.21;63.11
32251;BME280;41295;48.518;9.206;2023-04-25T01:32:57;96554.59;;;10.25;62.37
32251;BME280;41295;48.518;9.206;2023-04-25T01:34:59;96553.13;;;10.19;62.27
32251;BME280;41295;48.518;9.206;2023-04-25T01:37:03;96550.75;;;10.15;62.17
32251;BME280;41295;48.518;9.206;2023-04-25T01:39:07;96548.44;;;10.08;62.50
32251;BME280;41295;48.518;9.206;2023-04-25T01:41:10;96556.41;;;10.05;63.14
32251;BME280;41295;48.518;9.206;2023-04-25T01:43:13;96553.63;;;10.08;63.33
32251;BME280;41295;48.518;9.206;2023-04-25T01:45:16;96558.69;;;10.11;63.81
32251;BME280;41295;48.518;9.206;2023-04-25T01:47:19;96551.88;;;10.09;64.16
32251;BME280;41295;48.518;9.206;2023-04-25T01:49:22;96557.50;;;10.19;63.79
32251;BME280;41295;48.518;9.206;2023-04-25T01:51:28;96556.59;;;10.20;63.49
32251;BME280;41295;48.518;9.206;2023-04-25T01:53:31;96553.50;;;10.11;63.06
32251;BME280;41295;48.518;9.206;2023-04-25T01:55:35;96562.06;;;10.14;63.16
32251;BME280;41295;48.518;9.206;2023-04-25T01:57:38;96550.97;;;10.10;62.49
32251;BME280;41295;48.518;9.206;2023-04-25T01:59:41;96558.38;;;10.00;63.15
32251;BME280;41295;48.518;9.206;2023-04-25T02:01:44;96565.25;;;10.01;62.93
32251;BME280;41295;48.518;9.206;2023-04-25T02:03:46;96560.06;;;10.01;63.28
32251;BME280;41295;48.518;9.206;2023-04-25T02:05:50;96561.13;;;9.97;63.94
32251;BME280;41295;48.518;9.206;2023-04-25T02:07:52;96555.50;;;9.87;64.55
32251;BME280;41295;48.518;9.206;2023-04-25T02:09:55;96563.44;;;9.84;64.69
32251;BME280;41295;48.518;9.206;2023-04-25T02:11:59;96564.16;;;9.88;64.90
32251;BME280;41295;48.518;9.206;2023-04-25T02:14:01;96559.09;;;9.84;64.33
32251;BME280;41295;48.518;9.206;2023-04-25T02:16:04;96559.09;;;9.84;64.46
32251;BME280;41295;48.518;9.206;2023-04-25T02:18:07;96551.13;;;9.88;64.16
32251;BME280;41295;48.518;9.206;2023-04-25T02:20:12;96554.78;;;9.83;64.43
32251;BME280;41295;48.518;9.206;2023-04-25T02:22:14;96546.97;;;9.83;64.21
32251;BME280;41295;48.518;9.206;2023-04-25T02:24:17;96553.94;;;9.83;64.28
32251;BME280;41295;48.518;9.206;2023-04-25T02:26:19;96546.19;;;9.81;64.41
32251;BME280;41295;48.518;9.206;2023-04-25T02:28:24;96555.94;;;9.97;64.14
32251;BME280;41295;48.518;9.206;2023-04-25T02:30:27;96557.19;;;10.07;63.54
32251;BME280;41295;48.518;9.206;2023-04-25T02:32:29;96556.97;;;9.93;63.43
32251;BME280;41295;48.518;9.206;2023-04-25T02:34:32;96547.84;;;9.84;63.88
32251;BME280;41295;48.518;9.206;2023-04-25T02:36:35;96551.63;;;9.77;64.13
32251;BME280;41295;48.518;9.206;2023-04-25T02:38:38;96543.47;;;9.84;63.67
32251;BME280;41295;48.518;9.206;2023-04-25T02:40:40;96542.81;;;9.79;63.58
32251;BME280;41295;48.518;9.206;2023-04-25T02:42:43;96543.88;;;9.75;63.96
32251;BME280;41295;48.518;9.206;2023-04-25T02:44:48;96539.72;;;9.71;64.05
32251;BME280;41295;48.518;9.206;2023-04-25T02:46:50;96535.84;;;9.80;63.78
32251;BME280;41295;48.518;9.206;2023-04-25T02:48:53;96535.78;;;9.81;63.64
32251;BME280;41295;48.518;9.206;2023-04-25T02:50:56;96541.53;;;9.88;62.55
32251;BME280;41295;48.518;9.206;2023-04-25T02:52:58;96543.03;;;9.94;61.94
32251;BME280;41295;48.518;9.206;2023-04-25T02:55:01;96540.22;;;9.98;61.85
32251;BME280;41295;48.518;9.206;2023-04-25T02:57:04;96535.97;;;9.96;61.50
32251;BME280;41295;48.518;9.206;2023-04-25T02:59:06;96525.44;;;9.80;61.94
32251;BME280;41295;48.518;9.206;2023-04-25T03:01:10;96530.88;;;9.75;62.30
32251;BME280;41295;48.518;9.206;2023-04-25T03:03:13;96526.63;;;9.72;62.72
32251;BME280;41295;48.518;9.206;2023-04-25T03:05:16;96534.13;;;9.61;63.58
32251;BME280;41295;48.518;9.206;2023-04-25T03:07:19;96530.81;;;9.57;63.59
32251;BME280;41295;48.518;9.206;2023-04-25T03:09:21;96529.25;;;9.53;63.38
32251;BME280;41295;48.518;9.206;2023-04-25T03:11:25;96526.38;;;9.59;63.43
32251;BME280;41295;48.518;9.206;2023-04-25T03:13:28;96526.66;;;9.53;63.60
32251;BME280;41295;48.518;9.206;2023-04-25T03:15:31;96530.66;;;9.60;63.20
32251;BME280;41295;48.518;9.206;2023-04-25T03:17:35;96526.72;;;9.52;63.56
32251;BME280;41295;48.518;9.206;2023-04-25T03:19:37;96517.44;;;9.46;64.20
32251;BME280;41295;48.518;9.206;2023-04-25T03:21:40;96521.91;;;9.42;64.12
32251;BME280;41295;48.518;9.206;2023-04-25T03:23:42;96518.34;;;9.45;63.99
32251;BME280;41295;48.518;9.206;2023-04-25T03:25:45;96513.41;;;9.38;64.34
32251;BME280;41295;48.518;9.206;2023-04-25T03:27:48;96520.44;;;9.36;64.24
32251;BME280;41295;48.518;9.206;2023-04-25T03:29:50;96513.69;;;9.32;64.40
32251;BME280;41295;48.518;9.206;2023-04-25T03:31:53;96513.34;;;9.40;63.91
32251;BME280;41295;48.518;9.206;2023-04-25T03:33:57;96512.50;;;9.40;64.28
32251;BME280;41295;48.518;9.206;2023-04-25T03:35:59;96522.28;;;9.34;64.47
32251;BME280;41295;48.518;9.206;2023-04-25T03:38:02;96518.84;;;9.34;64.84
32251;BME280;41295;48.518;9.206;2023-04-25T03:40:06;96514.13;;;9.42;64.36
32251;BME280;41295;48.518;9.206;2023-04-25T03:42:09;96510.09;;;9.54;63.88
32251;BME280;41295;48.518;9.206;2023-04-25T03:44:11;96507.88;;;9.46;63.68
32251;BME280;41295;48.518;9.206;2023-04-25T03:46:14;96513.25;;;9.42;64.16
32251;BME280;41295;48.518;9.206;2023-04-25T03:48:16;96511.81;;;9.36;64.23
32251;BME280;41295;48.518;9.206;2023-04-25T03:50:21;96509.84;;;9.41;64.61
32251;BME280;41295;48.518;9.206;2023-04-25T03:52:23;96517.50;;;9.44;64.80
32251;BME280;41295;48.518;9.206;2023-04-25T03:54:26;96508.06;;;9.42;64.90
32251;BME280;41295;48.518;9.206;2023-04-25T03:56:29;96515.22;;;9.36;65.15
32251;BME280;41295;48.518;9.206;2023-04-25T03:58:32;96512.50;;;9.40;65.39
32251;BME280;41295;48.518;9.206;2023-04-25T04:00:34;96506.69;;;9.34;65.51
32251;BME280;41295;48.518;9.206;2023-04-25T04:02:37;96511.91;;;9.33;65.66
32251;BME280;41295;48.518;9.206;2023-04-25T04:04:41;96514.53;;;9.33;65.59
32251;BME280;41295;48.518;9.206;2023-04-25T04:06:47;96517.13;;;9.33;65.36
32251;BME280;41295;48.518;9.206;2023-04-25T04:08:49;96514.47;;;9.34;65.40
32251;BME280;41295;48.518;9.206;2023-04-25T04:10:52;96511.50;;;9.42;65.55
32251;BME280;41295;48.518;9.206;2023-04-25T04:12:54;96517.91;;;9.35;65.42
32251;BME280;41295;48.518;9.206;2023-04-25T04:14:57;96520.50;;;9.35;65.24
32251;BME280;41295;48.518;9.206;2023-04-25T04:17:00;96519.31;;;9.42;65.07
32251;BME280;41295;48.518;9.206;2023-04-25T04:19:02;96511.72;;;9.37;65.18
32251;BME280;41295;48.518;9.206;2023-04-25T04:21:05;96509.28;;;9.34;65.75
32251;BME280;41295;48.518;9.206;2023-04-25T04:23:11;96509.28;;;9.34;65.95
32251;BME280;41295;48.518;9.206;2023-04-25T04:25:14;96511.91;;;9.33;65.86
32251;BME280;41295;48.518;9.206;2023-04-25T04:27:17;96518.75;;;9.35;65.64
32251;BME280;41295;48.518;9.206;2023-04-25T04:29:20;96517.97;;;9.33;65.46
32251;BME280;41295;48.518;9.206;2023-04-25T04:31:23;96519.19;;;9.45;64.36
32251;BME280;41295;48.518;9.206;2023-04-25T04:33:26;96516.94;;;9.37;64.54
32251;BME280;41295;48.518;9.206;2023-04-25T04:35:28;96517.97;;;9.33;64.88
32251;BME280;41295;48.518;9.206;2023-04-25T04:37:31;96512.78;;;9.33;65.22
32251;BME280;41295;48.518;9.206;2023-04-25T04:39:35;96506.72;;;9.33;65.48
32251;BME280;41295;48.518;9.206;2023-04-25T04:41:38;96514.41;;;9.36;65.61
32251;BME280;41295;48.518;9.206;2023-04-25T04:43:41;96517.75;;;9.38;65.73
32251;BME280;41295;48.518;9.206;2023-04-25T04:45:44;96520.31;;;9.40;65.58
32251;BME280;41295;48.518;9.206;2023-04-25T04:47:47;96518.53;;;9.40;65.10
32251;BME280;41295;48.518;9.206;2023-04-25T04:49:50;96522.97;;;9.38;65.09
32251;BME280;41295;48.518;9.206;2023-04-25T04:51:52;96528.06;;;9.41;64.89
32251;BME280;41295;48.518;9.206;2023-04-25T04:53:58;96523.47;;;9.46;64.67
32251;BME280;41295;48.518;9.206;2023-04-25T04:56:05;96521.22;;;9.38;64.76
32251;BME280;41295;48.518;9.206;2023-04-25T04:58:08;96532.56;;;9.37;65.08
32251;BME280;41295;48.518;9.206;2023-04-25T05:00:11;96535.72;;;9.44;64.28
32251;BME280;41295;48.518;9.206;2023-04-25T05:02:14;96533.44;;;9.36;64.56
32251;BME280;41295;48.518;9.206;2023-04-25T05:04:17;96538.88;;;9.32;65.10
32251;BME280;41295;48.518;9.206;2023-04-25T05:06:20;96542.38;;;9.31;65.81
32251;BME280;41295;48.518;9.206;2023-04-25T05:08:22;96545.28;;;9.44;64.35
32251;BME280;41295;48.518;9.206;2023-04-25T05:10:25;96547.94;;;9.42;64.57
32251;BME280;41295;48.518;9.206;2023-04-25T05:12:29;96544.50;;;9.42;64.42
32251;BME280;41295;48.518;9.206;2023-04-25T05:14:32;96549.75;;;9.40;64.29
32251;BME280;41295;48.518;9.206;2023-04-25T05:16:35;96555.41;;;9.31;64.61
32251;BME280;41295;48.518;9.206;2023-04-25T05:18:38;96545.81;;;9.31;64.64
32251;BME280;41295;48.518;9.206;2023-04-25T05:20:41;96547.38;;;9.35;64.36
32251;BME280;41295;48.518;9.206;2023-04-25T05:22:43;96540.97;;;9.23;64.74
32251;BME280;41295;48.518;9.206;2023-04-25T05:24:46;96553.63;;;9.31;65.16
32251;BME280;41295;48.518;9.206;2023-04-25T05:26:49;96546.84;;;9.48;65.11
32251;BME280;41295;48.518;9.206;2023-04-25T05:28:53;96542.66;;;9.44;65.41
32251;BME280;41295;48.518;9.206;2023-04-25T05:30:56;96541.75;;;9.25;65.97
32251;BME280;41295;48.518;9.206;2023-04-25T05:32:59;96542.72;;;9.23;66.78
32251;BME280;41295;48.518;9.206;2023-04-25T05:35:02;96543.28;;;9.30;66.88
32251;BME280;41295;48.518;9.206;2023-04-25T05:37:04;96542.72;;;9.23;67.41
32251;BME280;41295;48.518;9.206;2023-04-25T05:39:07;96541.88;;;9.22;67.91
32251;BME280;41295;48.518;9.206;2023-04-25T05:41:10;96540.03;;;9.24;67.61
32251;BME280;41295;48.518;9.206;2023-04-25T05:43:12;96539.19;;;9.24;67.96
32251;BME280;41295;48.518;9.206;2023-04-25T05:45:16;96533.16;;;9.23;68.41
32251;BME280;41295;48.518;9.206;2023-04-25T05:47:19;96532.81;;;9.31;68.13
32251;BME280;41295;48.518;9.206;2023-04-25T05:49:22;96526.97;;;9.26;67.90
32251;BME280;41295;48.518;9.206;2023-04-25T05:51:24;96532.03;;;9.29;67.69
32251;BME280;41295;48.518;9.206;2023-04-25T05:53:27;96532.88;;;9.30;68.14
32251;BME280;41295;48.518;9.206;2023-04-25T05:55:30;96526.78;;;9.31;68.07
32251;BME280;41295;48.518;9.206;2023-04-25T05:57:32;96526.72;;;9.32;67.97
32251;BME280;41295;48.518;9.206;2023-04-25T05:59:35;96528.25;;;9.36;67.85
32251;BME280;41295;48.518;9.206;2023-04-25T06:01:39;96535.00;;;9.41;67.87
32251;BME280;41295;48.518;9.206;2023-04-25T06:03:41;96531.47;;;9.42;67.69
32251;BME280;41295;48.518;9.206;2023-04-25T06:05:45;96538.25;;;9.46;68.03
32251;BME280;41295;48.518;9.206;2023-04-25T06:07:47;96525.16;;;9.47;67.87
32251;BME280;41295;48.518;9.206;2023-04-25T06:09:50;96532.78;;;9.52;67.65
32251;BME280;41295;48.518;9.206;2023-04-25T06:11:52;96532.56;;;9.57;67.98
32251;BME280;41295;48.518;9.206;2023-04-25T06:13:55;96533.25;;;9.60;68.06
32251;BME280;41295;48.518;9.206;2023-04-25T06:15:58;96529.81;;;9.60;67.38
32251;BME280;41295;48.518;9.206;2023-04-25T06:18:02;96543.59;;;9.62;66.55
32251;BME280;41295;48.518;9.206;2023-04-25T06:20:06;96543.44;;;9.65;66.47
32251;BME280;41295;48.518;9.206;2023-04-25T06:22:10;96542.47;;;9.68;65.56
32251;BME280;41295;48.518;9.206;2023-04-25T06:24:12;96544.22;;;9.67;65.67
32251;BME280;41295;48.518;9.206;2023-04-25T06:26:15;96544.88;;;9.72;65.60
32251;BME280;41295;48.518;9.206;2023-04-25T06:28:17;96537.13;;;9.71;65.28
32251;BME280;41295;48.518;9.206;2023-04-25T06:30:20;96544.09;;;9.70;65.87
32251;BME280;41295;48.518;9.206;2023-04-25T06:32:26;96540.66;;;9.70;65.98
32251;BME280;41295;48.518;9.206;2023-04-25T06:34:32;96541.56;;;9.69;65.50
32251;BME280;41295;48.518;9.206;2023-04-25T06:36:35;96545.88;;;9.70;65.44
32251;BME280;41295;48.518;9.206;2023-04-25T06:38:40;96551.06;;;9.70;65.39
32251;BME280;41295;48.518;9.206;2023-04-25T06:40:45;96545.94;;;9.68;65.05
32251;BME280;41295;48.518;9.206;2023-04-25T06:42:49;96544.16;;;9.69;64.83
32251;BME280;41295;48.518;9.206;2023-04-25T06:44:52;96538.38;;;9.81;64.02
32251;BME280;41295;48.518;9.206;2023-04-25T06:46:54;96546.34;;;9.78;63.86
32251;BME280;41295;48.518;9.206;2023-04-25T06:48:57;96543.13;;;9.73;64.14
32251;BME280;41295;48.518;9.206;2023-04-25T06:51:01;96543.19;;;9.71;64.22
32251;BME280;41295;48.518;9.206;2023-04-25T06:53:04;96536.91;;;9.75;64.05
32251;BME280;41295;48.518;9.206;2023-04-25T06:55:07;96540.66;;;9.70;64.17
32251;BME280;41295;48.518;9.206;2023-04-25T06:57:10;96545.88;;;9.70;64.40
32251;BME280;41295;48.518;9.206;2023-04-25T06:59:12;96539.72;;;9.71;64.43
32251;BME280;41295;48.518;9.206;2023-04-25T07:01:15;96539.66;;;9.72;64.84
32251;BME280;41295;48.518;9.206;2023-04-25T07:03:18;96539.31;;;9.80;65.36
32251;BME280;41295;48.518;9.206;2023-04-25T07:05:21;96538.59;;;9.77;65.03
32251;BME280;41295;48.518;9.206;2023-04-25T07:07:25;96536.09;;;9.75;65.79
32251;BME280;41295;48.518;9.206;2023-04-25T07:09:27;96543.88;;;9.75;65.62
32251;BME280;41295;48.518;9.206;2023-04-25T07:11:30;96548.25;;;9.74;65.72
32251;BME280;41295;48.518;9.206;2023-04-25T07:13:32;96553.44;;;9.74;66.02
32251;BME280;41295;48.518;9.206;2023-04-25T07:15:35;96550.00;;;9.74;65.58
32251;BME280;41295;48.518;9.206;2023-04-25T07:17:38;96551.69;;;9.75;65.55
32251;BME280;41295;48.518;9.206;2023-04-25T07:19:40;96554.78;;;9.83;65.49
32251;BME280;41295;48.518;9.206;2023-04-25T07:21:43;96548.81;;;9.81;65.48
32251;BME280;41295;48.518;9.206;2023-04-25T07:23:49;96549.31;;;9.90;64.57
32251;BME280;41295;48.518;9.206;2023-04-25T07:25:52;96549.81;;;9.79;64.87
32251;BME280;41295;48.518;9.206;2023-04-25T07:27:54;96553.31;;;9.78;64.29
32251;BME280;41295;48.518;9.206;2023-04-25T07:29:57;96555.78;;;9.81;64.05
32251;BME280;41295;48.518;9.206;2023-04-25T07:31:59;96557.06;;;9.72;64.59
32251;BME280;41295;48.518;9.206;2023-04-25T07:34:02;96546.19;;;9.81;64.52
32251;BME280;41295;48.518;9.206;2023-04-25T07:36:06;96551.84;;;9.72;64.08
32251;BME280;41295;48.518;9.206;2023-04-25T07:38:08;96556.53;;;9.83;63.68
32251;BME280;41295;48.518;9.206;2023-04-25T07:40:13;96551.63;;;9.77;64.70
32251;BME280;41295;48.518;9.206;2023-04-25T07:42:17;96551.22;;;9.86;63.73
32251;BME280;41295;48.518;9.206;2023-04-25T07:44:19;96553.44;;;9.74;64.57
32251;BME280;41295;48.518;9.206;2023-04-25T07:46:22;96563.16;;;9.71;64.67
32251;BME280;41295;48.518;9.206;2023-04-25T07:48:24;96564.00;;;9.71;64.65
32251;BME280;41295;48.518;9.206;2023-04-25T07:50:27;96564.09;;;9.70;64.93
32251;BME280;41295;48.518;9.206;2023-04-25T07:52:30;96568.38;;;9.71;65.76
32251;BME280;41295;48.518;9.206;2023-04-25T07:54:32;96571.03;;;9.69;65.61
32251;BME280;41295;48.518;9.206;2023-04-25T07:56:36;96575.13;;;9.75;66.13
32251;BME280;41295;48.518;9.206;2023-04-25T07:58:53;96583.72;;;9.96;66.25
32251;BME280;41295;48.518;9.206;2023-04-25T08:00:55;96590.59;;;9.97;65.76
32251;BME280;41295;48.518;9.206;2023-04-25T08:02:58;96590.38;;;9.83;67.21
32251;BME280;41295;48.518;9.206;2023-04-25T08:05:01;96593.44;;;9.93;66.64
32251;BME280;41295;48.518;9.206;2023-04-25T08:07:04;96594.41;;;9.71;67.22
32251;BME280;41295;48.518;9.206;2023-04-25T08:09:07;96601.59;;;9.85;67.22
32251;BME280;41295;48.518;9.206;2023-04-25T08:11:10;96606.56;;;9.70;67.77
32251;BME280;41295;48.518;9.206;2023-04-25T08:13:14;96606.38;;;9.56;68.66
32251;BME280;41295;48.518;9.206;2023-04-25T08:15:17;96609.16;;;9.51;68.93
32251;BME280;41295;48.518;9.206;2023-04-25T08:17:19;96607.63;;;9.47;69.49
32251;BME280;41295;48.518;9.206;2023-04-25T08:19:22;96618.03;;;9.47;69.96
32251;BME280;41295;48.518;9.206;2023-04-25T08:21:25;96616.31;;;9.46;69.84
32251;BME280;41295;48.518;9.206;2023-04-25T08:23:28;96619.69;;;9.48;69.44
32251;BME280;41295;48.518;9.206;2023-04-25T08:25:30;96626.88;;;9.43;69.90
32251;BME280;41295;48.518;9.206;2023-04-25T08:27:33;96633.97;;;9.39;70.23
32251;BME280;41295;48.518;9.206;2023-04-25T08:29:37;96634.84;;;9.38;70.42
32251;BME280;41295;48.518;9.206;2023-04-25T08:31:40;96634.91;;;9.36;70.62
32251;BME280;41295;48.518;9.206;2023-04-25T08:33:42;96641.84;;;9.37;70.39
32251;BME280;41295;48.518;9.206;2023-04-25T08:35:45;96638.38;;;9.37;70.49
32251;BME280;41295;48.518;9.206;2023-04-25T08:37:48;96647.03;;;9.37;70.62
32251;BME280;41295;48.518;9.206;2023-04-25T08:39:51;96653.91;;;9.38;70.81
32251;BME280;41295;48.518;9.206;2023-04-25T08:41:54;96645.31;;;9.36;71.05
32251;BME280;41295;48.518;9.206;2023-04-25T08:43:59;96658.34;;;9.36;70.74
32251;BME280;41295;48.518;9.206;2023-04-25T08:46:05;96664.41;;;9.37;70.82
32251;BME280;41295;48.518;9.206;2023-04-25T08:48:10;96662.72;;;9.36;70.21
32251;BME280;41295;48.518;9.206;2023-04-25T08:50:13;96664.53;;;9.34;70.14
32251;BME280;41295;48.518;9.206;2023-04-25T08:52:21;96664.47;;;9.35;69.98
32251;BME280;41295;48.518;9.206;2023-04-25T08:54:26;96670.53;;;9.36;70.01
32251;BME280;41295;48.518;9.206;2023-04-25T08:56:36;96677.69;;;9.31;70.29
32251;BME280;41295;48.518;9.206;2023-04-25T08:58:40;96678.44;;;9.33;69.99
32251;BME280;41295;48.518;9.206;2023-04-25T09:00:43;96680.22;;;9.32;70.36
32251;BME280;41295;48.518;9.206;2023-04-25T09:02:48;96687.09;;;9.33;70.52
32251;BME280;41295;48.518;9.206;2023-04-25T09:04:53;96689.69;;;9.33;70.57
32251;BME280;41295;48.518;9.206;2023-04-25T09:06:57;96694.03;;;9.33;71.09
32251;BME280;41295;48.518;9.206;2023-04-25T09:09:02;96698.44;;;9.32;70.72
32251;BME280;41295;48.518;9.206;2023-04-25T09:11:07;96704.53;;;9.31;70.67
32251;BME280;41295;48.518;9.206;2023-04-25T09:13:11;96698.34;;;9.34;70.80
32251;BME280;41295;48.518;9.206;2023-04-25T09:15:16;96705.25;;;9.35;70.77
32251;BME280;41295;48.518;9.206;2023-04-25T09:17:21;96705.25;;;9.35;70.42
32251;BME280;41295;48.518;9.206;2023-04-25T09:19:27;96716.50;;;9.35;70.58
32251;BME280;41295;48.518;9.206;2023-04-25T09:21:41;96720.13;;;9.31;70.48
32251;BME280;41295;48.518;9.206;2023-04-25T09:23:45;96713.13;;;9.33;70.83
32251;BME280;41295;48.518;9.206;2023-04-25T09:25:48;96727.94;;;9.31;70.98
32251;BME280;41295;48.518;9.206;2023-04-25T09:27:52;96728.00;;;9.30;70.88
32251;BME280;41295;48.518;9.206;2023-04-25T09:29:58;96733.41;;;9.25;70.77
32251;BME280;41295;48.518;9.206;2023-04-25T09:32:20;96734.38;;;9.22;70.54
32251;BME280;41295;48.518;9.206;2023-04-25T09:34:26;96735.34;;;9.20;70.16
32251;BME280;41295;48.518;9.206;2023-04-25T09:36:30;96737.88;;;9.21;69.52
32251;BME280;41295;48.518;9.206;2023-04-25T09:38:40;96750.84;;;9.23;69.99
32251;BME280;41295;48.518;9.206;2023-04-25T09:40:45;96746.56;;;9.22;70.45
32251;BME280;41295;48.518;9.206;2023-04-25T09:42:48;96749.19;;;9.20;70.47
32251;BME280;41295;48.518;9.206;2023-04-25T09:44:52;96752.72;;;9.19;70.35
32251;BME280;41295;48.518;9.206;2023-04-25T09:46:55;96756.25;;;9.17;70.20
32251;BME280;41295;48.518;9.206;2023-04-25T09:48:58;96757.00;;;9.20;70.08
32251;BME280;41295;48.518;9.206;2023-04-25T09:51:08;96764.13;;;9.15;69.89
32251;BME280;41295;48.518;9.206;2023-04-25T09:53:11;96765.97;;;9.13;70.65
32251;BME280;41295;48.518;9.206;2023-04-25T09:55:14;96765.06;;;9.14;70.50
32251;BME280;41295;48.518;9.206;2023-04-25T09:57:18;96768.91;;;9.26;68.40
32251;BME280;41295;48.518;9.206;2023-04-25T09:59:22;96772.78;;;9.16;68.67
32251;BME280;41295;48.518;9.206;2023-04-25T10:01:25;96765.16;;;9.33;67.96
32251;BME280;41295;48.518;9.206;2023-04-25T10:03:29;96773.44;;;9.21;68.17
32251;BME280;41295;48.518;9.206;2023-04-25T10:05:34;96778.19;;;9.11;69.03
32251;BME280;41295;48.518;9.206;2023-04-25T10:07:40;96776.84;;;9.23;68.51
32251;BME280;41295;48.518;9.206;2023-04-25T10:09:47;96766.66;;;9.17;68.43
32251;BME280;41295;48.518;9.206;2023-04-25T10:11:51;96782.84;;;9.25;66.81
32251;BME280;41295;48.518;9.206;2023-04-25T10:13:54;96776.91;;;9.21;66.59
32251;BME280;41295;48.518;9.206;2023-04-25T10:15:59;96780.97;;;9.06;66.81
32251;BME280;41295;48.518;9.206;2023-04-25T10:18:02;96786.72;;;9.14;67.06
32251;BME280;41295;48.518;9.206;2023-04-25T10:20:06;96786.28;;;9.03;67.32
32251;BME280;41295;48.518;9.206;2023-04-25T10:22:16;96790.88;;;8.96;67.82
32251;BME280;41295;48.518;9.206;2023-04-25T10:24:21;96789.69;;;9.05;66.93
32251;BME280;41295;48.518;9.206;2023-04-25T10:26:24;96795.09;;;8.99;67.90
32251;BME280;41295;48.518;9.206;2023-04-25T10:28:28;96800.03;;;9.07;67.22
32251;BME280;41295;48.518;9.206;2023-04-25T10:30:31;96800.38;;;8.97;67.16
32251;BME280;41295;48.518;9.206;2023-04-25T10:32:34;96803.63;;;9.02;68.53
32251;BME280;41295;48.518;9.206;2023-04-25T10:34:39;96800.78;;;8.86;68.89
32251;BME280;41295;48.518;9.206;2023-04-25T10:36:42;96805.38;;;8.80;69.19
32251;BME280;41295;48.518;9.206;2023-04-25T10:38:45;96807.09;;;9.03;66.56
32251;BME280;41295;48.518;9.206;2023-04-25T10:41:03;96809.88;;;8.98;67.15
32251;BME280;41295;48.518;9.206;2023-04-25T10:43:34;96815.03;;;9.00;67.05
32251;BME280;41295;48.518;9.206;2023-04-25T10:45:51;96813.84;;;8.85;67.13
32251;BME280;41295;48.518;9.206;2023-04-25T10:47:54;96815.81;;;9.02;66.34
32251;BME280;41295;48.518;9.206;2023-04-25T10:50:04;96817.84;;;8.94;66.33
32251;BME280;41295;48.518;9.206;2023-04-25T10:52:12;96820.38;;;8.73;67.60
32251;BME280;41295;48.518;9.206;2023-04-25T10:54:17;96824.03;;;8.67;66.84
32251;BME280;41295;48.518;9.206;2023-04-25T10:56:24;96826.06;;;8.59;66.77
32251;BME280;41295;48.518;9.206;2023-04-25T10:58:27;96831.88;;;8.65;66.44
32251;BME280;41295;48.518;9.206;2023-04-25T11:00:29;96832.16;;;8.58;67.43
32251;BME280;41295;48.518;9.206;2023-04-25T11:02:51;96837.03;;;8.67;67.75